sensor_id;sensor_type;location;lat;lon;timestamp;temperature;humidity
49821;DHT22;36893;52.520;13.450;2023-04-24T00:07:37;24.20;62.10
49821;DHT22;36893;52.520;13.450;2023-04-24T00:17:37;24.20;62.00
49821;DHT22;36893;52.520;13.450;2023-04-24T00:27:38;24.20;62.10
49821;DHT22;36893;52.520;13.450;2023-04-24T00:37:39;24.20;62.10
49821;DHT22;36893;52.520;13.450;2023-04-24T00:47:41;24.10;62.90
49821;DHT22;36893;52.520;13.450;2023-04-24T00:57:43;24.10;62.00
49821;DHT22;36893;52.520;13.450;2023-04-24T01:07:45;24.10;62.00
49821;DHT22;36893;52.520;13.450;2023-04-24T01:17:48;24.10;62.00
49821;DHT22;36893;52.520;13.450;2023-04-24T01:27:49;24.10;62.10
49821;DHT22;36893;52.520;13.450;2023-04-24T01:37:50;24.10;62.10
49821;DHT22;36893;52.520;13.450;2023-04-24T01:47:51;24.10;62.10
49821;DHT22;36893;52.520;13.450;2023-04-24T01:57:56;24.10;62.20
49821;DHT22;36893;52.520;13.450;2023-04-24T02:07:57;24.10;62.30
49821;DHT22;36893;52.520;13.450;2023-04-24T02:17:57;24.10;62.40
49821;DHT22;36893;52.520;13.450;2023-04-24T02:27:58;24.10;62.50
49821;DHT22;36893;52.520;13.450;2023-04-24T02:37:59;24.10;62.60
49821;DHT22;36893;52.520;13.450;2023-04-24T02:47:59;24.10;62.70
49821;DHT22;36893;52.520;13.450;2023-04-24T02:58:00;24.10;62.70
49821;DHT22;36893;52.520;13.450;2023-04-24T03:08:01;24.10;62.80
49821;DHT22;36893;52.520;13.450;2023-04-24T03:18:01;24.10;62.80
49821;DHT22;36893;52.520;13.450;2023-04-24T03:28:02;24.10;62.80
49821;DHT22;36893;52.520;13.450;2023-04-24T03:38:03;24.10;62.80
49821;DHT22;36893;52.520;13.450;2023-04-24T03:48:06;24.10;63.00
49821;DHT22;36893;52.520;13.450;2023-04-24T03:58:07;24.10;62.90
49821;DHT22;36893;52.520;13.450;2023-04-24T04:08:08;24.10;62.90
49821;DHT22;36893;52.520;13.450;2023-04-24T04:18:09;24.10;63.00
49821;DHT22;36893;52.520;13.450;2023-04-24T04:28:10;24.10;63.00
49821;DHT22;36893;52.520;13.450;2023-04-24T04:38:10;24.00;62.90
49821;DHT22;36893;52.520;13.450;2023-04-24T04:48:11;24.00;62.90
49821;DHT22;36893;52.520;13.450;2023-04-24T04:58:13;24.00;62.90
49821;DHT22;36893;52.520;13.450;2023-04-24T05:08:14;24.00;63.00
49821;DHT22;36893;52.520;13.450;2023-04-24T05:18:15;24.00;62.90
49821;DHT22;36893;52.520;13.450;2023-04-24T05:28:15;24.00;63.00
49821;DHT22;36893;52.520;13.450;2023-04-24T05:38:16;24.00;63.10
49821;DHT22;36893;52.520;13.450;2023-04-24T05:48:19;24.00;63.20
49821;DHT22;36893;52.520;13.450;2023-04-24T05:58:20;24.00;63.20
49821;DHT22;36893;52.520;13.450;2023-04-24T06:08:21;23.90;63.20
49821;DHT22;36893;52.520;13.450;2023-04-24T06:18:21;23.90;63.20
49821;DHT22;36893;52.520;13.450;2023-04-24T06:28:22;24.00;63.30
49821;DHT22;36893;52.520;13.450;2023-04-24T06:38:23;23.90;63.30
49821;DHT22;36893;52.520;13.450;2023-04-24T06:48:24;23.80;63.30
49821;DHT22;36893;52.520;13.450;2023-04-24T06:58:25;23.60;63.40
49821;DHT22;36893;52.520;13.450;2023-04-24T07:08:26;23.70;63.40
49821;DHT22;36893;52.520;13.450;2023-04-24T07:18:26;23.80;63.40
49821;DHT22;36893;52.520;13.450;2023-04-24T07:28:27;23.80;63.40
49821;DHT22;36893;52.520;13.450;2023-04-24T07:38:31;23.90;63.40
49821;DHT22;36893;52.520;13.450;2023-04-24T07:48:31;23.90;63.50
49821;DHT22;36893;52.520;13.450;2023-04-24T07:58:32;24.00;63.60
49821;DHT22;36893;52.520;13.450;2023-04-24T08:08:33;24.00;63.60
49821;DHT22;36893;52.520;13.450;2023-04-24T08:18:34;24.00;63.60
49821;DHT22;36893;52.520;13.450;2023-04-24T08:28:36;24.10;63.70
49821;DHT22;36893;52.520;13.450;2023-04-24T08:38:37;24.10;63.60
49821;DHT22;36893;52.520;13.450;2023-04-24T08:48:38;24.20;63.60
49821;DHT22;36893;52.520;13.450;2023-04-24T08:58:39;24.20;63.60
49821;DHT22;36893;52.520;13.450;2023-04-24T09:08:41;24.20;63.60
49821;DHT22;36893;52.520;13.450;2023-04-24T09:18:42;24.20;63.70
49821;DHT22;36893;52.520;13.450;2023-04-24T09:28:43;24.20;63.70
49821;DHT22;36893;52.520;13.450;2023-04-24T09:38:45;24.20;63.80
49821;DHT22;36893;52.520;13.450;2023-04-24T09:48:46;24.20;63.90
49821;DHT22;36893;52.520;13.450;2023-04-24T09:58:47;24.30;64.00
49821;DHT22;36893;52.520;13.450;2023-04-24T10:08:48;24.30;64.00
49821;DHT22;36893;52.520;13.450;2023-04-24T10:18:51;24.30;64.00
49821;DHT22;36893;52.520;13.450;2023-04-24T10:28:52;24.30;64.00
49821;DHT22;36893;52.520;13.450;2023-04-24T10:38:56;24.30;64.10
49821;DHT22;36893;52.520;13.450;2023-04-24T10:48:57;24.30;64.20
49821;DHT22;36893;52.520;13.450;2023-04-24T10:58:58;24.30;64.20
49821;DHT22;36893;52.520;13.450;2023-04-24T11:09:09;24.30;64.20
49821;DHT22;36893;52.520;13.450;2023-04-24T11:29:19;24.30;64.20
49821;DHT22;36893;52.520;13.450;2023-04-24T11:39:21;24.30;64.20
49821;DHT22;36893;52.520;13.450;2023-04-24T11:49:21;24.40;64.30
49821;DHT22;36893;52.520;13.450;2023-04-24T11:59:22;24.30;65.00
49821;DHT22;36893;52.520;13.450;2023-04-24T12:09:23;24.40;64.30
49821;DHT22;36893;52.520;13.450;2023-04-24T12:19:23;24.40;64.30
49821;DHT22;36893;52.520;13.450;2023-04-24T12:29:24;24.40;64.30
49821;DHT22;36893;52.520;13.450;2023-04-24T12:39:25;24.50;64.30
49821;DHT22;36893;52.520;13.450;2023-04-24T12:49:27;24.50;64.30
49821;DHT22;36893;52.520;13.450;2023-04-24T12:59:30;24.50;64.30
49821;DHT22;36893;52.520;13.450;2023-04-24T13:09:31;24.50;64.30
49821;DHT22;36893;52.520;13.450;2023-04-24T13:19:39;24.50;64.70
49821;DHT22;36893;52.520;13.450;2023-04-24T13:29:41;24.50;64.50
49821;DHT22;36893;52.520;13.450;2023-04-24T13:39:41;24.50;64.50
49821;DHT22;36893;52.520;13.450;2023-04-24T13:49:42;24.50;64.50
49821;DHT22;36893;52.520;13.450;2023-04-24T13:59:43;24.50;64.60
49821;DHT22;36893;52.520;13.450;2023-04-24T14:09:43;24.50;64.60
49821;DHT22;36893;52.520;13.450;2023-04-24T14:19:44;24.50;64.60
49821;DHT22;36893;52.520;13.450;2023-04-24T14:29:45;24.50;64.70
49821;DHT22;36893;52.520;13.450;2023-04-24T14:39:46;24.50;64.70
49821;DHT22;36893;52.520;13.450;2023-04-24T14:49:47;24.50;64.70
49821;DHT22;36893;52.520;13.450;2023-04-24T14:59:48;24.50;64.70
49821;DHT22;36893;52.520;13.450;2023-04-24T15:09:49;24.50;64.70
49821;DHT22;36893;52.520;13.450;2023-04-24T15:19:49;24.50;64.80
49821;DHT22;36893;52.520;13.450;2023-04-24T15:29:50;24.50;64.80
49821;DHT22;36893;52.520;13.450;2023-04-24T15:39:50;24.50;64.80
49821;DHT22;36893;52.520;13.450;2023-04-24T15:49:52;24.50;64.80
49821;DHT22;36893;52.520;13.450;2023-04-24T15:59:53;24.50;64.90
49821;DHT22;36893;52.520;13.450;2023-04-24T16:09:53;24.50;65.00
49821;DHT22;36893;52.520;13.450;2023-04-24T16:19:55;24.50;65.10
49821;DHT22;36893;52.520;13.450;2023-04-24T16:29:56;24.40;65.00
49821;DHT22;36893;52.520;13.450;2023-04-24T16:39:56;24.40;65.10
49821;DHT22;36893;52.520;13.450;2023-04-24T16:49:57;24.40;65.10
49821;DHT22;36893;52.520;13.450;2023-04-24T16:59:57;24.40;65.20
49821;DHT22;36893;52.520;13.450;2023-04-24T17:09:58;24.50;65.30
49821;DHT22;36893;52.520;13.450;2023-04-24T17:19:59;24.40;65.30
49821;DHT22;36893;52.520;13.450;2023-04-24T17:30:00;24.40;65.40
49821;DHT22;36893;52.520;13.450;2023-04-24T17:40:01;24.40;65.40
49821;DHT22;36893;52.520;13.450;2023-04-24T17:50:02;24.40;65.50
49821;DHT22;36893;52.520;13.450;2023-04-24T18:00:03;24.40;65.60
49821;DHT22;36893;52.520;13.450;2023-04-24T18:10:05;24.40;65.80
49821;DHT22;36893;52.520;13.450;2023-04-24T18:20:06;24.40;65.90
49821;DHT22;36893;52.520;13.450;2023-04-24T18:30:08;24.40;66.00
49821;DHT22;36893;52.520;13.450;2023-04-24T18:40:11;24.40;66.20
49821;DHT22;36893;52.520;13.450;2023-04-24T18:50:12;24.40;66.30
49821;DHT22;36893;52.520;13.450;2023-04-24T19:00:14;24.40;66.40
49821;DHT22;36893;52.520;13.450;2023-04-24T19:10:14;24.50;66.70
49821;DHT22;36893;52.520;13.450;2023-04-24T19:20:17;24.50;66.90
49821;DHT22;36893;52.520;13.450;2023-04-24T19:30:18;24.50;67.20
49821;DHT22;36893;52.520;13.450;2023-04-24T19:40:18;24.50;67.30
49821;DHT22;36893;52.520;13.450;2023-04-24T19:50:19;24.50;67.60
49821;DHT22;36893;52.520;13.450;2023-04-24T20:00:20;24.40;67.60
49821;DHT22;36893;52.520;13.450;2023-04-24T20:10:21;24.40;67.70
49821;DHT22;36893;52.520;13.450;2023-04-24T20:20:21;24.40;67.90
49821;DHT22;36893;52.520;13.450;2023-04-24T20:30:22;24.40;67.90
49821;DHT22;36893;52.520;13.450;2023-04-24T20:40:23;24.50;68.00
49821;DHT22;36893;52.520;13.450;2023-04-24T20:50:24;24.40;68.00
49821;DHT22;36893;52.520;13.450;2023-04-24T21:00:26;24.40;68.10
49821;DHT22;36893;52.520;13.450;2023-04-24T21:10:30;24.40;68.10
49821;DHT22;36893;52.520;13.450;2023-04-24T21:20:33;24.40;68.20
49821;DHT22;36893;52.520;13.450;2023-04-24T21:30:33;24.40;68.30
49821;DHT22;36893;52.520;13.450;2023-04-24T21:40:34;24.40;68.30
49821;DHT22;36893;52.520;13.450;2023-04-24T21:50:35;24.30;68.20
49821;DHT22;36893;52.520;13.450;2023-04-24T22:00:35;24.30;68.20
49821;DHT22;36893;52.520;13.450;2023-04-24T22:10:36;24.40;68.30
49821;DHT22;36893;52.520;13.450;2023-04-24T22:20:37;24.30;68.20
49821;DHT22;36893;52.520;13.450;2023-04-24T22:30:39;24.30;68.10
49821;DHT22;36893;52.520;13.450;2023-04-24T22:40:39;24.30;68.00
49821;DHT22;36893;52.520;13.450;2023-04-24T22:50:41;24.30;67.90
49821;DHT22;36893;52.520;13.450;2023-04-24T23:00:42;24.30;67.90
49821;DHT22;36893;52.520;13.450;2023-04-24T23:10:43;24.30;67.80
49821;DHT22;36893;52.520;13.450;2023-04-24T23:20:44;24.30;67.80
49821;DHT22;36893;52.520;13.450;2023-04-24T23:30:45;24.20;67.70
49821;DHT22;36893;52.520;13.450;2023-04-24T23:40:46;24.20;67.60
49821;DHT22;36893;52.520;13.450;2023-04-24T23:50:46;24.20;67.50
